sensor_id;sensor_type;location;lat;lon;timestamp;P1;durP1;ratioP1;P2;durP2;ratioP2
3278;SDS011;1651;50.940;6.888;2022-08-26T00:00:40;7.80;;;5.23;;
3278;SDS011;1651;50.940;6.888;2022-08-26T00:03:08;6.93;;;5.97;;
3278;SDS011;1651;50.940;6.888;2022-08-26T00:05:34;10.23;;;7.43;;
3278;SDS011;1651;50.940;6.888;2022-08-26T00:08:01;7.80;;;6.57;;
3278;SDS011;1651;50.940;6.888;2022-08-26T00:10:28;9.50;;;7.03;;
3278;SDS011;1651;50.940;6.888;2022-08-26T00:12:54;10.57;;;7.27;;
3278;SDS011;1651;50.940;6.888;2022-08-26T00:15:20;7.60;;;7.00;;
3278;SDS011;1651;50.940;6.888;2022-08-26T00:17:47;11.73;;;7.90;;
3278;SDS011;1651;50.940;6.888;2022-08-26T00:20:14;11.73;;;9.80;;
3278;SDS011;1651;50.940;6.888;2022-08-26T00:22:41;13.70;;;8.73;;
3278;SDS011;1651;50.940;6.888;2022-08-26T00:25:08;11.40;;;10.00;;
3278;SDS011;1651;50.940;6.888;2022-08-26T00:27:36;15.03;;;12.27;;
3278;SDS011;1651;50.940;6.888;2022-08-26T00:30:05;19.43;;;13.63;;
3278;SDS011;1651;50.940;6.888;2022-08-26T00:32:34;17.83;;;15.03;;
3278;SDS011;1651;50.940;6.888;2022-08-26T00:35:00;19.10;;;16.90;;
3278;SDS011;1651;50.940;6.888;2022-08-26T00:37:28;24.07;;;19.47;;
3278;SDS011;1651;50.940;6.888;2022-08-26T00:39:54;24.37;;;18.63;;
3278;SDS011;1651;50.940;6.888;2022-08-26T00:42:20;27.73;;;23.70;;
3278;SDS011;1651;50.940;6.888;2022-08-26T00:44:46;27.60;;;24.70;;
3278;SDS011;1651;50.940;6.888;2022-08-26T00:47:23;29.00;;;24.90;;
3278;SDS011;1651;50.940;6.888;2022-08-26T00:49:51;33.30;;;29.70;;
3278;SDS011;1651;50.940;6.888;2022-08-26T00:52:19;35.30;;;30.90;;
3278;SDS011;1651;50.940;6.888;2022-08-26T00:55:32;39.43;;;31.50;;
3278;SDS011;1651;50.940;6.888;2022-08-26T00:57:32;38.73;;;34.53;;
3278;SDS011;1651;50.940;6.888;2022-08-26T00:59:59;40.30;;;35.07;;
3278;SDS011;1651;50.940;6.888;2022-08-26T01:04:58;46.17;;;37.37;;
3278;SDS011;1651;50.940;6.888;2022-08-26T01:07:25;46.57;;;40.27;;
3278;SDS011;1651;50.940;6.888;2022-08-26T01:09:52;51.53;;;41.77;;
3278;SDS011;1651;50.940;6.888;2022-08-26T01:12:18;45.53;;;36.40;;
3278;SDS011;1651;50.940;6.888;2022-08-26T01:14:45;51.03;;;43.40;;
3278;SDS011;1651;50.940;6.888;2022-08-26T01:17:11;49.40;;;41.50;;
3278;SDS011;1651;50.940;6.888;2022-08-26T01:19:43;51.23;;;42.07;;
3278;SDS011;1651;50.940;6.888;2022-08-26T01:24:40;55.33;;;44.43;;
3278;SDS011;1651;50.940;6.888;2022-08-26T01:27:07;57.97;;;44.27;;
3278;SDS011;1651;50.940;6.888;2022-08-26T01:29:35;53.23;;;42.90;;
3278;SDS011;1651;50.940;6.888;2022-08-26T01:32:03;54.10;;;41.97;;
3278;SDS011;1651;50.940;6.888;2022-08-26T01:34:33;56.03;;;45.00;;
3278;SDS011;1651;50.940;6.888;2022-08-26T01:37:13;56.57;;;46.60;;
3278;SDS011;1651;50.940;6.888;2022-08-26T01:39:40;57.53;;;46.67;;
3278;SDS011;1651;50.940;6.888;2022-08-26T01:42:13;56.17;;;46.10;;
3278;SDS011;1651;50.940;6.888;2022-08-26T01:44:41;53.40;;;44.87;;
3278;SDS011;1651;50.940;6.888;2022-08-26T01:47:10;56.13;;;45.67;;
3278;SDS011;1651;50.940;6.888;2022-08-26T01:49:38;58.60;;;45.73;;
3278;SDS011;1651;50.940;6.888;2022-08-26T01:52:05;59.40;;;49.20;;
3278;SDS011;1651;50.940;6.888;2022-08-26T01:54:33;55.47;;;46.17;;
3278;SDS011;1651;50.940;6.888;2022-08-26T01:56:59;55.90;;;46.97;;
3278;SDS011;1651;50.940;6.888;2022-08-26T01:59:26;53.40;;;43.27;;
3278;SDS011;1651;50.940;6.888;2022-08-26T02:01:53;57.20;;;45.13;;
3278;SDS011;1651;50.940;6.888;2022-08-26T02:06:45;58.83;;;43.40;;
3278;SDS011;1651;50.940;6.888;2022-08-26T02:09:16;51.50;;;44.50;;
3278;SDS011;1651;50.940;6.888;2022-08-26T02:11:42;60.57;;;43.00;;
3278;SDS011;1651;50.940;6.888;2022-08-26T02:14:10;58.60;;;45.30;;
3278;SDS011;1651;50.940;6.888;2022-08-26T02:16:40;57.43;;;43.43;;
3278;SDS011;1651;50.940;6.888;2022-08-26T02:19:08;52.37;;;41.43;;
3278;SDS011;1651;50.940;6.888;2022-08-26T02:21:36;49.20;;;41.07;;
3278;SDS011;1651;50.940;6.888;2022-08-26T02:24:21;48.07;;;42.17;;
3278;SDS011;1651;50.940;6.888;2022-08-26T02:26:48;51.57;;;41.97;;
3278;SDS011;1651;50.940;6.888;2022-08-26T02:31:41;46.37;;;38.40;;
3278;SDS011;1651;50.940;6.888;2022-08-26T02:34:12;48.47;;;39.80;;
3278;SDS011;1651;50.940;6.888;2022-08-26T02:36:38;49.50;;;39.27;;
3278;SDS011;1651;50.940;6.888;2022-08-26T02:39:05;47.60;;;37.57;;
3278;SDS011;1651;50.940;6.888;2022-08-26T02:41:31;51.20;;;38.50;;
3278;SDS011;1651;50.940;6.888;2022-08-26T02:43:57;45.07;;;37.57;;
3278;SDS011;1651;50.940;6.888;2022-08-26T02:46:25;50.43;;;39.57;;
3278;SDS011;1651;50.940;6.888;2022-08-26T02:48:51;45.80;;;38.30;;
3278;SDS011;1651;50.940;6.888;2022-08-26T02:53:48;44.50;;;37.13;;
3278;SDS011;1651;50.940;6.888;2022-08-26T02:56:14;48.07;;;38.00;;
3278;SDS011;1651;50.940;6.888;2022-08-26T02:58:40;39.83;;;32.40;;
3278;SDS011;1651;50.940;6.888;2022-08-26T03:01:06;49.00;;;37.27;;
3278;SDS011;1651;50.940;6.888;2022-08-26T03:03:32;47.93;;;37.50;;
3278;SDS011;1651;50.940;6.888;2022-08-26T03:06:00;40.20;;;33.50;;
3278;SDS011;1651;50.940;6.888;2022-08-26T03:08:26;49.80;;;37.93;;
3278;SDS011;1651;50.940;6.888;2022-08-26T03:10:52;44.87;;;35.10;;
3278;SDS011;1651;50.940;6.888;2022-08-26T03:13:21;37.17;;;32.67;;
3278;SDS011;1651;50.940;6.888;2022-08-26T03:15:47;48.87;;;35.37;;
3278;SDS011;1651;50.940;6.888;2022-08-26T03:18:13;43.10;;;34.93;;
3278;SDS011;1651;50.940;6.888;2022-08-26T03:20:40;39.90;;;32.90;;
3278;SDS011;1651;50.940;6.888;2022-08-26T03:23:09;40.67;;;32.80;;
3278;SDS011;1651;50.940;6.888;2022-08-26T03:25:35;45.47;;;35.30;;
3278;SDS011;1651;50.940;6.888;2022-08-26T03:28:03;47.50;;;35.77;;
3278;SDS011;1651;50.940;6.888;2022-08-26T03:30:29;44.47;;;35.50;;
3278;SDS011;1651;50.940;6.888;2022-08-26T03:33:05;43.37;;;34.77;;
3278;SDS011;1651;50.940;6.888;2022-08-26T03:35:33;47.07;;;35.73;;
3278;SDS011;1651;50.940;6.888;2022-08-26T03:38:01;44.13;;;33.93;;
3278;SDS011;1651;50.940;6.888;2022-08-26T03:40:28;42.73;;;35.07;;
3278;SDS011;1651;50.940;6.888;2022-08-26T03:42:55;45.03;;;34.70;;
3278;SDS011;1651;50.940;6.888;2022-08-26T03:45:21;45.30;;;34.70;;
3278;SDS011;1651;50.940;6.888;2022-08-26T03:47:47;39.60;;;33.27;;
3278;SDS011;1651;50.940;6.888;2022-08-26T03:50:14;43.10;;;32.77;;
3278;SDS011;1651;50.940;6.888;2022-08-26T03:52:41;49.30;;;31.87;;
3278;SDS011;1651;50.940;6.888;2022-08-26T03:55:07;42.60;;;33.07;;
3278;SDS011;1651;50.940;6.888;2022-08-26T03:57:33;42.83;;;31.47;;
3278;SDS011;1651;50.940;6.888;2022-08-26T04:00:00;45.87;;;31.50;;
3278;SDS011;1651;50.940;6.888;2022-08-26T04:02:27;47.10;;;30.80;;
3278;SDS011;1651;50.940;6.888;2022-08-26T04:04:52;46.70;;;33.73;;
3278;SDS011;1651;50.940;6.888;2022-08-26T04:07:18;43.03;;;29.80;;
3278;SDS011;1651;50.940;6.888;2022-08-26T04:09:45;38.77;;;30.97;;
3278;SDS011;1651;50.940;6.888;2022-08-26T04:12:12;42.37;;;32.40;;
3278;SDS011;1651;50.940;6.888;2022-08-26T04:14:39;41.70;;;32.37;;
3278;SDS011;1651;50.940;6.888;2022-08-26T04:17:05;38.70;;;30.27;;
3278;SDS011;1651;50.940;6.888;2022-08-26T04:19:31;36.57;;;28.77;;
3278;SDS011;1651;50.940;6.888;2022-08-26T04:21:57;47.07;;;29.03;;
3278;SDS011;1651;50.940;6.888;2022-08-26T04:24:24;35.43;;;27.57;;
3278;SDS011;1651;50.940;6.888;2022-08-26T04:26:50;44.07;;;28.50;;
3278;SDS011;1651;50.940;6.888;2022-08-26T04:29:19;37.47;;;28.90;;
3278;SDS011;1651;50.940;6.888;2022-08-26T04:31:45;38.03;;;27.93;;
3278;SDS011;1651;50.940;6.888;2022-08-26T04:34:12;39.07;;;27.50;;
3278;SDS011;1651;50.940;6.888;2022-08-26T04:36:39;33.97;;;26.07;;
3278;SDS011;1651;50.940;6.888;2022-08-26T04:39:07;35.37;;;26.10;;
3278;SDS011;1651;50.940;6.888;2022-08-26T04:41:37;39.33;;;26.33;;
3278;SDS011;1651;50.940;6.888;2022-08-26T04:44:03;34.50;;;25.17;;
3278;SDS011;1651;50.940;6.888;2022-08-26T04:46:30;31.90;;;24.83;;
3278;SDS011;1651;50.940;6.888;2022-08-26T04:48:57;29.00;;;24.33;;
3278;SDS011;1651;50.940;6.888;2022-08-26T04:51:23;34.83;;;25.73;;
3278;SDS011;1651;50.940;6.888;2022-08-26T04:53:57;28.60;;;23.77;;
3278;SDS011;1651;50.940;6.888;2022-08-26T04:56:24;35.73;;;24.00;;
3278;SDS011;1651;50.940;6.888;2022-08-26T04:58:52;31.63;;;23.60;;
3278;SDS011;1651;50.940;6.888;2022-08-26T05:01:19;30.20;;;22.33;;
3278;SDS011;1651;50.940;6.888;2022-08-26T05:03:47;24.70;;;22.03;;
3278;SDS011;1651;50.940;6.888;2022-08-26T05:06:14;26.37;;;22.30;;
3278;SDS011;1651;50.940;6.888;2022-08-26T05:08:40;25.00;;;20.00;;
3278;SDS011;1651;50.940;6.888;2022-08-26T05:11:08;27.40;;;20.73;;
3278;SDS011;1651;50.940;6.888;2022-08-26T05:13:35;27.27;;;21.27;;
3278;SDS011;1651;50.940;6.888;2022-08-26T05:16:02;26.73;;;20.30;;
3278;SDS011;1651;50.940;6.888;2022-08-26T05:18:29;24.10;;;19.80;;
3278;SDS011;1651;50.940;6.888;2022-08-26T05:20:57;25.53;;;19.07;;
3278;SDS011;1651;50.940;6.888;2022-08-26T05:23:24;28.23;;;20.40;;
3278;SDS011;1651;50.940;6.888;2022-08-26T05:25:50;27.87;;;19.37;;
3278;SDS011;1651;50.940;6.888;2022-08-26T05:28:17;24.77;;;19.17;;
3278;SDS011;1651;50.940;6.888;2022-08-26T05:30:44;21.03;;;17.30;;
3278;SDS011;1651;50.940;6.888;2022-08-26T05:33:10;24.93;;;17.67;;
3278;SDS011;1651;50.940;6.888;2022-08-26T05:35:37;21.93;;;17.50;;
3278;SDS011;1651;50.940;6.888;2022-08-26T05:38:04;22.23;;;17.80;;
3278;SDS011;1651;50.940;6.888;2022-08-26T05:40:35;22.50;;;17.10;;
3278;SDS011;1651;50.940;6.888;2022-08-26T05:43:02;21.40;;;16.53;;
3278;SDS011;1651;50.940;6.888;2022-08-26T05:45:34;19.60;;;15.80;;
3278;SDS011;1651;50.940;6.888;2022-08-26T05:48:00;22.73;;;16.37;;
3278;SDS011;1651;50.940;6.888;2022-08-26T05:50:26;26.23;;;15.80;;
3278;SDS011;1651;50.940;6.888;2022-08-26T05:52:52;25.10;;;16.10;;
3278;SDS011;1651;50.940;6.888;2022-08-26T05:55:19;17.13;;;13.87;;
3278;SDS011;1651;50.940;6.888;2022-08-26T05:57:45;17.70;;;15.73;;
3278;SDS011;1651;50.940;6.888;2022-08-26T06:00:13;19.70;;;14.60;;
3278;SDS011;1651;50.940;6.888;2022-08-26T06:02:40;19.53;;;13.20;;
3278;SDS011;1651;50.940;6.888;2022-08-26T06:05:06;15.63;;;12.43;;
3278;SDS011;1651;50.940;6.888;2022-08-26T06:07:32;23.80;;;14.90;;
3278;SDS011;1651;50.940;6.888;2022-08-26T06:10:26;16.33;;;13.67;;
3278;SDS011;1651;50.940;6.888;2022-08-26T06:12:56;16.40;;;12.30;;
3278;SDS011;1651;50.940;6.888;2022-08-26T06:15:23;13.60;;;11.80;;
3278;SDS011;1651;50.940;6.888;2022-08-26T06:17:50;13.10;;;11.67;;
3278;SDS011;1651;50.940;6.888;2022-08-26T06:20:16;17.17;;;11.07;;
3278;SDS011;1651;50.940;6.888;2022-08-26T06:22:42;14.43;;;10.93;;
3278;SDS011;1651;50.940;6.888;2022-08-26T06:25:26;15.30;;;10.30;;
3278;SDS011;1651;50.940;6.888;2022-08-26T06:28:02;13.50;;;10.50;;
3278;SDS011;1651;50.940;6.888;2022-08-26T06:30:30;13.93;;;10.67;;
3278;SDS011;1651;50.940;6.888;2022-08-26T06:32:58;11.40;;;9.57;;
3278;SDS011;1651;50.940;6.888;2022-08-26T06:35:25;10.60;;;9.60;;
3278;SDS011;1651;50.940;6.888;2022-08-26T06:37:53;14.10;;;10.63;;
3278;SDS011;1651;50.940;6.888;2022-08-26T06:40:19;11.93;;;9.80;;
3278;SDS011;1651;50.940;6.888;2022-08-26T06:42:47;14.40;;;10.63;;
3278;SDS011;1651;50.940;6.888;2022-08-26T06:45:13;14.20;;;9.57;;
3278;SDS011;1651;50.940;6.888;2022-08-26T06:47:40;15.67;;;9.30;;
3278;SDS011;1651;50.940;6.888;2022-08-26T06:50:07;18.10;;;11.60;;
3278;SDS011;1651;50.940;6.888;2022-08-26T06:52:33;17.07;;;10.17;;
3278;SDS011;1651;50.940;6.888;2022-08-26T06:54:59;9.73;;;8.67;;
3278;SDS011;1651;50.940;6.888;2022-08-26T06:57:25;9.33;;;8.20;;
3278;SDS011;1651;50.940;6.888;2022-08-26T06:59:52;10.90;;;9.40;;
3278;SDS011;1651;50.940;6.888;2022-08-26T07:02:18;10.00;;;8.10;;
3278;SDS011;1651;50.940;6.888;2022-08-26T07:05:03;13.43;;;8.93;;
3278;SDS011;1651;50.940;6.888;2022-08-26T07:07:31;9.00;;;7.47;;
3278;SDS011;1651;50.940;6.888;2022-08-26T07:09:57;11.67;;;8.83;;
3278;SDS011;1651;50.940;6.888;2022-08-26T07:12:23;12.00;;;9.00;;
3278;SDS011;1651;50.940;6.888;2022-08-26T07:14:50;11.27;;;8.13;;
3278;SDS011;1651;50.940;6.888;2022-08-26T07:17:18;10.37;;;9.27;;
3278;SDS011;1651;50.940;6.888;2022-08-26T07:19:44;20.43;;;8.67;;
3278;SDS011;1651;50.940;6.888;2022-08-26T07:22:11;11.93;;;10.33;;
3278;SDS011;1651;50.940;6.888;2022-08-26T07:24:38;11.13;;;9.10;;
3278;SDS011;1651;50.940;6.888;2022-08-26T07:27:06;12.20;;;9.30;;
3278;SDS011;1651;50.940;6.888;2022-08-26T07:29:33;9.63;;;8.63;;
3278;SDS011;1651;50.940;6.888;2022-08-26T07:32:01;14.37;;;10.90;;
3278;SDS011;1651;50.940;6.888;2022-08-26T07:34:27;10.80;;;9.13;;
3278;SDS011;1651;50.940;6.888;2022-08-26T07:36:56;11.40;;;10.00;;
3278;SDS011;1651;50.940;6.888;2022-08-26T07:39:22;15.03;;;9.77;;
3278;SDS011;1651;50.940;6.888;2022-08-26T07:41:50;10.40;;;8.90;;
3278;SDS011;1651;50.940;6.888;2022-08-26T07:44:17;13.77;;;10.10;;
3278;SDS011;1651;50.940;6.888;2022-08-26T07:46:43;13.40;;;9.70;;
3278;SDS011;1651;50.940;6.888;2022-08-26T07:49:10;13.10;;;10.17;;
3278;SDS011;1651;50.940;6.888;2022-08-26T07:51:36;13.33;;;10.27;;
3278;SDS011;1651;50.940;6.888;2022-08-26T07:54:04;13.50;;;9.20;;
3278;SDS011;1651;50.940;6.888;2022-08-26T07:56:31;14.03;;;10.40;;
3278;SDS011;1651;50.940;6.888;2022-08-26T07:58:58;15.23;;;10.63;;
3278;SDS011;1651;50.940;6.888;2022-08-26T08:01:24;14.37;;;10.77;;
3278;SDS011;1651;50.940;6.888;2022-08-26T08:03:51;15.33;;;10.00;;
3278;SDS011;1651;50.940;6.888;2022-08-26T08:06:19;11.50;;;9.17;;
3278;SDS011;1651;50.940;6.888;2022-08-26T08:08:45;13.50;;;10.97;;
3278;SDS011;1651;50.940;6.888;2022-08-26T08:11:11;15.70;;;9.87;;
3278;SDS011;1651;50.940;6.888;2022-08-26T08:13:37;11.77;;;10.57;;
3278;SDS011;1651;50.940;6.888;2022-08-26T08:16:03;12.30;;;9.80;;
3278;SDS011;1651;50.940;6.888;2022-08-26T08:18:30;15.23;;;10.70;;
3278;SDS011;1651;50.940;6.888;2022-08-26T08:20:56;13.37;;;10.87;;
3278;SDS011;1651;50.940;6.888;2022-08-26T08:23:24;19.23;;;11.20;;
3278;SDS011;1651;50.940;6.888;2022-08-26T08:25:56;11.93;;;10.40;;
3278;SDS011;1651;50.940;6.888;2022-08-26T08:28:26;14.07;;;9.63;;
3278;SDS011;1651;50.940;6.888;2022-08-26T08:30:52;16.43;;;11.17;;
3278;SDS011;1651;50.940;6.888;2022-08-26T08:33:19;15.80;;;10.33;;
3278;SDS011;1651;50.940;6.888;2022-08-26T08:35:45;11.10;;;10.10;;
3278;SDS011;1651;50.940;6.888;2022-08-26T08:38:13;12.50;;;9.47;;
3278;SDS011;1651;50.940;6.888;2022-08-26T08:40:39;18.00;;;13.00;;
3278;SDS011;1651;50.940;6.888;2022-08-26T08:43:11;13.20;;;11.00;;
3278;SDS011;1651;50.940;6.888;2022-08-26T08:48:17;13.33;;;11.87;;
3278;SDS011;1651;50.940;6.888;2022-08-26T08:50:51;30.20;;;11.50;;
3278;SDS011;1651;50.940;6.888;2022-08-26T08:53:20;18.27;;;12.43;;
3278;SDS011;1651;50.940;6.888;2022-08-26T08:58:50;13.87;;;10.73;;
3278;SDS011;1651;50.940;6.888;2022-08-26T09:01:21;14.90;;;12.13;;
3278;SDS011;1651;50.940;6.888;2022-08-26T09:03:54;14.63;;;11.50;;
3278;SDS011;1651;50.940;6.888;2022-08-26T09:06:21;17.87;;;12.67;;
3278;SDS011;1651;50.940;6.888;2022-08-26T09:08:49;16.77;;;12.10;;
3278;SDS011;1651;50.940;6.888;2022-08-26T09:11:16;17.70;;;12.40;;
3278;SDS011;1651;50.940;6.888;2022-08-26T09:13:45;16.07;;;10.97;;
3278;SDS011;1651;50.940;6.888;2022-08-26T09:16:14;25.93;;;12.33;;
3278;SDS011;1651;50.940;6.888;2022-08-26T09:21:11;16.30;;;11.03;;
3278;SDS011;1651;50.940;6.888;2022-08-26T09:23:38;14.07;;;10.60;;
3278;SDS011;1651;50.940;6.888;2022-08-26T09:26:13;16.03;;;10.60;;
3278;SDS011;1651;50.940;6.888;2022-08-26T09:28:40;12.23;;;9.60;;
3278;SDS011;1651;50.940;6.888;2022-08-26T09:31:21;17.03;;;8.97;;
3278;SDS011;1651;50.940;6.888;2022-08-26T09:34:03;11.97;;;8.60;;
3278;SDS011;1651;50.940;6.888;2022-08-26T09:36:34;9.87;;;8.87;;
3278;SDS011;1651;50.940;6.888;2022-08-26T09:39:03;12.47;;;9.70;;
3278;SDS011;1651;50.940;6.888;2022-08-26T09:41:32;10.87;;;9.77;;
3278;SDS011;1651;50.940;6.888;2022-08-26T09:44:16;11.83;;;10.20;;
3278;SDS011;1651;50.940;6.888;2022-08-26T09:46:44;11.47;;;10.30;;
3278;SDS011;1651;50.940;6.888;2022-08-26T09:52:10;8.97;;;8.00;;
3278;SDS011;1651;50.940;6.888;2022-08-26T09:54:38;10.43;;;8.47;;
3278;SDS011;1651;50.940;6.888;2022-08-26T09:57:11;13.40;;;8.63;;
3278;SDS011;1651;50.940;6.888;2022-08-26T09:59:38;9.47;;;7.60;;
3278;SDS011;1651;50.940;6.888;2022-08-26T10:02:15;11.67;;;9.20;;
3278;SDS011;1651;50.940;6.888;2022-08-26T10:04:48;8.60;;;7.70;;
3278;SDS011;1651;50.940;6.888;2022-08-26T10:07:32;10.70;;;7.23;;
3278;SDS011;1651;50.940;6.888;2022-08-26T10:10:02;7.50;;;6.80;;
3278;SDS011;1651;50.940;6.888;2022-08-26T10:12:29;10.50;;;7.97;;
3278;SDS011;1651;50.940;6.888;2022-08-26T10:17:35;9.50;;;7.47;;
3278;SDS011;1651;50.940;6.888;2022-08-26T10:22:41;11.57;;;8.20;;
3278;SDS011;1651;50.940;6.888;2022-08-26T10:25:12;10.67;;;7.37;;
3278;SDS011;1651;50.940;6.888;2022-08-26T10:30:14;8.80;;;6.80;;
3278;SDS011;1651;50.940;6.888;2022-08-26T10:32:44;10.70;;;6.77;;
3278;SDS011;1651;50.940;6.888;2022-08-26T10:35:15;9.00;;;8.10;;
3278;SDS011;1651;50.940;6.888;2022-08-26T10:37:45;8.83;;;6.63;;
3278;SDS011;1651;50.940;6.888;2022-08-26T10:40:21;7.70;;;6.20;;
3278;SDS011;1651;50.940;6.888;2022-08-26T10:45:18;8.57;;;6.33;;
3278;SDS011;1651;50.940;6.888;2022-08-26T10:50:39;7.90;;;5.60;;
3278;SDS011;1651;50.940;6.888;2022-08-26T10:55:57;20.47;;;18.40;;
3278;SDS011;1651;50.940;6.888;2022-08-26T11:04:04;8.30;;;5.97;;
3278;SDS011;1651;50.940;6.888;2022-08-26T11:06:35;10.93;;;4.50;;
3278;SDS011;1651;50.940;6.888;2022-08-26T11:09:04;6.43;;;5.20;;
3278;SDS011;1651;50.940;6.888;2022-08-26T11:16:42;8.83;;;5.30;;
3278;SDS011;1651;50.940;6.888;2022-08-26T11:19:10;11.50;;;4.23;;
3278;SDS011;1651;50.940;6.888;2022-08-26T11:37:44;4.83;;;3.67;;
3278;SDS011;1651;50.940;6.888;2022-08-26T11:40:34;5.07;;;3.80;;
3278;SDS011;1651;50.940;6.888;2022-08-26T11:43:05;5.67;;;3.90;;
3278;SDS011;1651;50.940;6.888;2022-08-26T11:45:37;4.30;;;3.50;;
3278;SDS011;1651;50.940;6.888;2022-08-26T11:50:39;7.00;;;4.00;;
3278;SDS011;1651;50.940;6.888;2022-08-26T11:53:06;6.43;;;3.87;;
3278;SDS011;1651;50.940;6.888;2022-08-26T11:55:33;8.77;;;4.40;;
3278;SDS011;1651;50.940;6.888;2022-08-26T11:58:05;6.10;;;3.90;;
3278;SDS011;1651;50.940;6.888;2022-08-26T12:06:02;5.57;;;3.00;;
3278;SDS011;1651;50.940;6.888;2022-08-26T12:08:39;3.90;;;3.33;;
3278;SDS011;1651;50.940;6.888;2022-08-26T12:11:19;9.10;;;3.23;;
3278;SDS011;1651;50.940;6.888;2022-08-26T12:13:54;7.47;;;4.60;;
3278;SDS011;1651;50.940;6.888;2022-08-26T12:16:34;10.43;;;3.30;;
3278;SDS011;1651;50.940;6.888;2022-08-26T12:19:23;3.30;;;2.90;;
3278;SDS011;1651;50.940;6.888;2022-08-26T12:21:53;8.23;;;5.67;;
3278;SDS011;1651;50.940;6.888;2022-08-26T12:45:07;4.60;;;2.57;;
3278;SDS011;1651;50.940;6.888;2022-08-26T12:47:40;6.97;;;2.77;;
3278;SDS011;1651;50.940;6.888;2022-08-26T12:50:29;4.73;;;2.90;;
3278;SDS011;1651;50.940;6.888;2022-08-26T13:01:18;9.70;;;3.00;;
3278;SDS011;1651;50.940;6.888;2022-08-26T13:03:44;7.50;;;3.20;;
3278;SDS011;1651;50.940;6.888;2022-08-26T13:13:49;7.70;;;2.60;;
3278;SDS011;1651;50.940;6.888;2022-08-26T13:16:17;4.77;;;3.13;;
3278;SDS011;1651;50.940;6.888;2022-08-26T13:18:49;6.93;;;2.53;;
3278;SDS011;1651;50.940;6.888;2022-08-26T13:21:27;3.97;;;2.40;;
3278;SDS011;1651;50.940;6.888;2022-08-26T13:23:55;4.50;;;2.20;;
3278;SDS011;1651;50.940;6.888;2022-08-26T13:26:23;8.00;;;2.50;;
3278;SDS011;1651;50.940;6.888;2022-08-26T13:28:49;4.27;;;2.60;;
3278;SDS011;1651;50.940;6.888;2022-08-26T13:31:18;3.37;;;2.70;;
3278;SDS011;1651;50.940;6.888;2022-08-26T13:33:44;6.13;;;3.33;;
3278;SDS011;1651;50.940;6.888;2022-08-26T13:36:13;7.17;;;3.17;;
3278;SDS011;1651;50.940;6.888;2022-08-26T13:38:40;10.10;;;3.73;;
3278;SDS011;1651;50.940;6.888;2022-08-26T13:41:06;5.93;;;2.50;;
3278;SDS011;1651;50.940;6.888;2022-08-26T13:43:34;6.87;;;2.80;;
3278;SDS011;1651;50.940;6.888;2022-08-26T13:46:05;5.20;;;2.43;;
3278;SDS011;1651;50.940;6.888;2022-08-26T13:48:31;8.03;;;2.30;;
3278;SDS011;1651;50.940;6.888;2022-08-26T13:51:02;3.30;;;2.57;;
3278;SDS011;1651;50.940;6.888;2022-08-26T13:53:28;7.17;;;2.70;;
3278;SDS011;1651;50.940;6.888;2022-08-26T13:55:58;7.33;;;2.83;;
3278;SDS011;1651;50.940;6.888;2022-08-26T13:58:25;4.23;;;2.33;;
3278;SDS011;1651;50.940;6.888;2022-08-26T14:00:51;7.80;;;3.13;;
3278;SDS011;1651;50.940;6.888;2022-08-26T14:03:17;5.67;;;2.53;;
3278;SDS011;1651;50.940;6.888;2022-08-26T14:05:43;3.20;;;2.90;;
3278;SDS011;1651;50.940;6.888;2022-08-26T14:10:41;8.17;;;3.10;;
3278;SDS011;1651;50.940;6.888;2022-08-26T14:13:10;6.50;;;3.10;;
3278;SDS011;1651;50.940;6.888;2022-08-26T14:15:37;6.57;;;3.30;;
3278;SDS011;1651;50.940;6.888;2022-08-26T14:18:03;8.30;;;2.40;;
3278;SDS011;1651;50.940;6.888;2022-08-26T14:20:30;7.63;;;2.93;;
3278;SDS011;1651;50.940;6.888;2022-08-26T14:22:58;3.83;;;2.53;;
3278;SDS011;1651;50.940;6.888;2022-08-26T14:25:26;5.73;;;3.00;;
3278;SDS011;1651;50.940;6.888;2022-08-26T14:27:56;5.53;;;2.70;;
3278;SDS011;1651;50.940;6.888;2022-08-26T14:30:24;8.33;;;3.17;;
3278;SDS011;1651;50.940;6.888;2022-08-26T14:32:54;8.30;;;2.50;;
3278;SDS011;1651;50.940;6.888;2022-08-26T14:35:31;9.17;;;2.90;;
3278;SDS011;1651;50.940;6.888;2022-08-26T14:38:18;6.47;;;2.63;;
3278;SDS011;1651;50.940;6.888;2022-08-26T14:40:47;7.00;;;2.93;;
3278;SDS011;1651;50.940;6.888;2022-08-26T14:43:13;12.83;;;2.87;;
3278;SDS011;1651;50.940;6.888;2022-08-26T14:45:42;4.80;;;2.47;;
3278;SDS011;1651;50.940;6.888;2022-08-26T14:48:10;4.37;;;2.43;;
3278;SDS011;1651;50.940;6.888;2022-08-26T14:50:36;9.73;;;2.80;;
3278;SDS011;1651;50.940;6.888;2022-08-26T14:53:05;8.37;;;2.63;;
3278;SDS011;1651;50.940;6.888;2022-08-26T14:55:54;19.43;;;2.73;;
3278;SDS011;1651;50.940;6.888;2022-08-26T14:58:21;9.73;;;3.07;;
3278;SDS011;1651;50.940;6.888;2022-08-26T15:00:48;3.60;;;1.90;;
3278;SDS011;1651;50.940;6.888;2022-08-26T15:03:16;5.80;;;2.77;;
3278;SDS011;1651;50.940;6.888;2022-08-26T15:05:42;8.03;;;2.60;;
3278;SDS011;1651;50.940;6.888;2022-08-26T15:08:12;6.43;;;2.50;;
3278;SDS011;1651;50.940;6.888;2022-08-26T15:10:38;9.10;;;2.77;;
3278;SDS011;1651;50.940;6.888;2022-08-26T15:13:11;8.33;;;2.17;;
3278;SDS011;1651;50.940;6.888;2022-08-26T15:15:38;6.10;;;2.60;;
3278;SDS011;1651;50.940;6.888;2022-08-26T15:18:08;5.73;;;2.83;;
3278;SDS011;1651;50.940;6.888;2022-08-26T15:20:36;8.20;;;2.30;;
3278;SDS011;1651;50.940;6.888;2022-08-26T15:25:34;5.50;;;2.53;;
3278;SDS011;1651;50.940;6.888;2022-08-26T15:28:01;3.73;;;2.00;;
3278;SDS011;1651;50.940;6.888;2022-08-26T15:30:28;8.00;;;3.20;;
3278;SDS011;1651;50.940;6.888;2022-08-26T15:32:54;9.40;;;7.40;;
3278;SDS011;1651;50.940;6.888;2022-08-26T15:35:21;6.60;;;4.03;;
3278;SDS011;1651;50.940;6.888;2022-08-26T15:37:47;12.23;;;8.13;;
3278;SDS011;1651;50.940;6.888;2022-08-26T15:40:14;5.67;;;2.50;;
3278;SDS011;1651;50.940;6.888;2022-08-26T15:42:42;9.93;;;5.17;;
3278;SDS011;1651;50.940;6.888;2022-08-26T15:45:09;4.20;;;2.30;;
3278;SDS011;1651;50.940;6.888;2022-08-26T15:47:35;7.43;;;2.80;;
3278;SDS011;1651;50.940;6.888;2022-08-26T15:50:02;5.40;;;2.20;;
3278;SDS011;1651;50.940;6.888;2022-08-26T15:52:29;7.53;;;2.80;;
3278;SDS011;1651;50.940;6.888;2022-08-26T15:54:59;4.93;;;2.00;;
3278;SDS011;1651;50.940;6.888;2022-08-26T15:57:26;3.97;;;2.20;;
3278;SDS011;1651;50.940;6.888;2022-08-26T15:59:52;5.13;;;2.50;;
3278;SDS011;1651;50.940;6.888;2022-08-26T16:04:59;4.70;;;2.90;;
3278;SDS011;1651;50.940;6.888;2022-08-26T16:07:30;6.03;;;3.10;;
3278;SDS011;1651;50.940;6.888;2022-08-26T16:09:57;3.50;;;2.80;;
3278;SDS011;1651;50.940;6.888;2022-08-26T16:12:25;6.03;;;2.60;;
3278;SDS011;1651;50.940;6.888;2022-08-26T16:14:52;2.73;;;2.23;;
3278;SDS011;1651;50.940;6.888;2022-08-26T16:17:18;4.03;;;2.93;;
3278;SDS011;1651;50.940;6.888;2022-08-26T16:19:47;5.70;;;2.27;;
3278;SDS011;1651;50.940;6.888;2022-08-26T16:22:12;5.30;;;2.57;;
3278;SDS011;1651;50.940;6.888;2022-08-26T16:24:38;8.60;;;3.10;;
3278;SDS011;1651;50.940;6.888;2022-08-26T16:27:05;4.63;;;3.00;;
3278;SDS011;1651;50.940;6.888;2022-08-26T16:29:31;9.40;;;2.60;;
3278;SDS011;1651;50.940;6.888;2022-08-26T16:31:57;6.33;;;2.50;;
3278;SDS011;1651;50.940;6.888;2022-08-26T16:34:24;4.30;;;2.67;;
3278;SDS011;1651;50.940;6.888;2022-08-26T16:36:50;4.20;;;2.87;;
3278;SDS011;1651;50.940;6.888;2022-08-26T16:39:16;6.80;;;2.77;;
3278;SDS011;1651;50.940;6.888;2022-08-26T16:41:42;7.70;;;2.80;;
3278;SDS011;1651;50.940;6.888;2022-08-26T16:44:08;5.17;;;2.87;;
3278;SDS011;1651;50.940;6.888;2022-08-26T16:46:37;5.50;;;2.73;;
3278;SDS011;1651;50.940;6.888;2022-08-26T16:49:04;10.00;;;2.70;;
3278;SDS011;1651;50.940;6.888;2022-08-26T16:51:30;8.43;;;2.93;;
3278;SDS011;1651;50.940;6.888;2022-08-26T16:53:57;7.07;;;2.97;;
3278;SDS011;1651;50.940;6.888;2022-08-26T16:56:25;2.70;;;1.90;;
3278;SDS011;1651;50.940;6.888;2022-08-26T16:58:52;3.83;;;2.03;;
3278;SDS011;1651;50.940;6.888;2022-08-26T17:01:20;7.43;;;2.17;;
3278;SDS011;1651;50.940;6.888;2022-08-26T17:03:51;9.33;;;2.37;;
3278;SDS011;1651;50.940;6.888;2022-08-26T17:06:18;11.23;;;2.00;;